West Rushville, Ohio
Current Conditions -  °F | °C
As of 7:53 PM on Friday 19 Dec 2014 (Local Time) from KLHQ Reporting Station
Overcast Overcast  
Wind Chill: 33°   Ceiling: 1800
Heat Index: 33°   Visibility: 9mi
Dew Point: 24°   Wind: 3mph
Humidity: 70%   Direction: 360°N
Pressure: 30.3"   Gusts: NA
Location:  39.76°N, 82.45°W
Report Text: KLHQ 200053Z AUTO 36003KT 9SM OVC018 01/M04 A3030 RMK AO2 SLP269 T00061044
Loading
Personal Weather Stations






























Interactive Weather Map New forecast layout! Learn more

10-Day Weather Forecast

Advertisements
Track Severe Weather on mobile